createdAt,value
2017-12-10T00:01:30.449Z,-0.20
2017-12-10T00:03:57.493Z,-0.20
2017-12-10T00:06:25.315Z,-0.30
2017-12-10T00:08:52.355Z,-0.30
2017-12-10T00:11:20.107Z,-0.40
2017-12-10T00:13:47.152Z,-0.40
2017-12-10T00:16:14.158Z,-0.40
2017-12-10T00:18:41.170Z,-0.40
2017-12-10T00:21:08.174Z,-0.40
2017-12-10T00:23:35.950Z,-0.50
2017-12-10T00:26:02.957Z,-0.60
2017-12-10T00:28:29.984Z,-0.40
2017-12-10T00:30:56.984Z,-0.40
2017-12-10T00:33:24.753Z,-0.50
2017-12-10T00:35:51.766Z,-0.60
2017-12-10T00:38:18.765Z,-0.60
2017-12-10T00:40:45.766Z,-0.60
2017-12-10T00:43:13.542Z,-0.60
2017-12-10T00:45:40.540Z,-0.60
2017-12-10T00:48:07.543Z,-0.40
2017-12-10T00:50:34.564Z,-0.40
2017-12-10T00:53:01.562Z,-0.50
2017-12-10T00:55:28.554Z,-0.50
2017-12-10T00:57:55.561Z,-0.40
2017-12-10T01:00:22.561Z,-0.50
2017-12-10T01:02:49.560Z,-0.60
2017-12-10T01:05:16.561Z,-0.60
2017-12-10T01:07:43.551Z,-0.70
2017-12-10T01:10:10.560Z,-0.70
2017-12-10T01:12:37.566Z,-0.80
2017-12-10T01:15:04.562Z,-0.70
2017-12-10T01:17:31.602Z,-0.70
2017-12-10T01:19:58.602Z,-0.80
2017-12-10T01:22:26.644Z,-0.70
2017-12-10T01:24:53.809Z,-0.70
2017-12-10T01:27:20.886Z,-0.80
2017-12-10T01:29:48.010Z,-0.80
2017-12-10T01:32:15.189Z,-0.70
2017-12-10T01:40:34.064Z,-0.80
2017-12-10T01:43:01.194Z,-0.70
2017-12-10T01:45:28.277Z,-0.80
2017-12-10T01:47:55.369Z,-0.80
2017-12-10T01:50:22.446Z,-0.90
2017-12-10T01:52:49.540Z,-0.90
2017-12-10T01:55:16.665Z,-0.90
2017-12-10T01:57:43.764Z,-0.90
2017-12-10T02:00:10.937Z,-0.90
2017-12-10T02:02:38.109Z,-0.90
2017-12-10T02:05:05.191Z,-0.90
2017-12-10T02:07:32.325Z,-0.90
2017-12-10T02:09:59.377Z,-0.90
2017-12-10T02:12:27.200Z,-0.90
2017-12-10T02:14:54.325Z,-0.90
2017-12-10T02:17:21.472Z,-0.90
2017-12-10T02:19:48.580Z,-1.00
2017-12-10T02:22:15.790Z,-1.10
2017-12-10T02:24:42.908Z,-1.10
2017-12-10T02:50:19.459Z,-1.20
2017-12-10T02:52:46.578Z,-1.30
2017-12-10T02:55:13.695Z,-1.30
2017-12-10T02:57:40.801Z,-1.40
2017-12-10T03:06:00.749Z,-1.40
2017-12-10T03:08:27.825Z,-1.30
2017-12-10T03:34:22.522Z,-1.60
2017-12-10T03:54:31.104Z,-1.60
2017-12-10T03:56:59.558Z,-1.70
2017-12-10T03:59:28.034Z,-1.60
2017-12-10T04:01:55.796Z,-1.70
2017-12-10T04:04:22.842Z,-1.60
2017-12-10T04:06:49.896Z,-1.50
2017-12-10T04:09:17.033Z,-1.40
2017-12-10T04:11:44.977Z,-1.40
2017-12-10T04:14:12.093Z,-1.30
2017-12-10T04:16:40.064Z,-1.20
2017-12-10T04:19:07.728Z,-1.20
2017-12-10T04:45:00.422Z,-0.60
2017-12-10T04:47:27.444Z,-0.50
2017-12-10T04:49:54.469Z,-0.50
2017-12-10T04:52:21.482Z,-0.50
2017-12-10T04:54:48.502Z,-0.50
2017-12-10T04:57:15.595Z,-0.40
2017-12-10T04:59:42.608Z,-0.40
2017-12-10T05:07:52.205Z,-0.50
2017-12-10T05:10:19.347Z,-0.40
2017-12-10T05:12:46.502Z,-0.40
2017-12-10T05:15:13.712Z,-0.40
2017-12-10T05:17:40.858Z,-0.30
2017-12-10T05:20:08.030Z,-0.20
2017-12-10T05:22:35.116Z,-0.30
2017-12-10T05:25:02.304Z,-0.30
2017-12-10T05:27:29.442Z,-0.30
2017-12-10T05:32:30.120Z,-0.30
2017-12-10T05:34:57.276Z,-0.30
2017-12-10T05:37:25.174Z,-0.30
2017-12-10T05:51:36.038Z,-0.20
2017-12-10T05:54:03.160Z,-0.10
2017-12-10T05:56:30.352Z,-0.10
2017-12-10T05:58:57.518Z,-0.10
2017-12-10T06:01:24.646Z,-0.10
2017-12-10T06:03:51.799Z,-0.10
2017-12-10T06:06:18.968Z,-0.10
2017-12-10T06:08:46.082Z,-0.20
2017-12-10T06:11:13.222Z,-0.20
2017-12-10T06:13:40.409Z,-0.30
2017-12-10T06:16:07.469Z,-0.30
2017-12-10T06:18:34.581Z,-0.30
2017-12-10T06:23:59.119Z,-0.40
2017-12-10T06:26:26.195Z,-0.40
2017-12-10T06:28:53.336Z,-0.40
2017-12-10T06:31:20.553Z,-0.40
2017-12-10T06:33:48.304Z,-0.40
2017-12-10T06:36:15.503Z,-0.40
2017-12-10T06:38:42.647Z,-0.40
2017-12-10T06:41:09.845Z,-0.30
2017-12-10T06:43:37.055Z,-0.30
2017-12-10T06:46:04.267Z,-1.00
2017-12-10T06:48:31.498Z,-0.30
2017-12-10T06:50:58.763Z,-0.30
2017-12-10T06:53:25.878Z,-0.20
2017-12-10T06:55:52.966Z,-0.30
2017-12-10T06:58:20.062Z,-0.30
2017-12-10T07:00:47.230Z,-0.30
2017-12-10T07:03:14.344Z,-0.20
2017-12-10T07:05:41.556Z,-0.20
2017-12-10T07:08:08.757Z,-0.20
2017-12-10T07:10:35.897Z,-0.30
2017-12-10T07:13:03.038Z,-0.30
2017-12-10T07:15:30.186Z,-0.20
2017-12-10T07:17:57.315Z,-0.20
2017-12-10T07:20:24.433Z,-0.20
2017-12-10T07:22:51.585Z,-0.20
2017-12-10T07:25:18.726Z,-0.20
2017-12-10T07:27:45.845Z,-0.10
2017-12-10T07:30:12.954Z,2.20
2017-12-10T07:32:40.399Z,-0.10
2017-12-10T07:35:08.242Z,-0.20
2017-12-10T07:37:35.395Z,-0.20
2017-12-10T07:42:36.063Z,-0.10
2017-12-10T07:50:36.267Z,0.20
2017-12-10T07:53:04.502Z,0.30
2017-12-10T07:58:12.098Z,3.30
2017-12-10T08:00:44.217Z,0.80
2017-12-10T08:06:23.471Z,0.80
2017-12-10T08:08:55.178Z,0.70
2017-12-10T08:14:28.743Z,0.60
2017-12-10T08:20:03.027Z,0.60
2017-12-10T08:25:37.269Z,0.70
2017-12-10T08:31:12.323Z,0.70
2017-12-10T09:20:49.403Z,0.90
2017-12-10T09:23:31.151Z,1.20
2017-12-10T09:25:59.519Z,1.20
2017-12-10T09:28:32.692Z,1.20
2017-12-10T09:31:04.254Z,1.30
2017-12-10T09:33:36.756Z,1.30
2017-12-10T09:36:07.331Z,1.20
2017-12-10T09:38:38.688Z,1.30
2017-12-10T09:41:12.870Z,1.30
2017-12-10T09:43:49.020Z,1.20
2017-12-10T09:49:12.535Z,1.30
2017-12-10T09:51:42.965Z,1.30
2017-12-10T09:54:11.371Z,1.30
2017-12-10T09:56:43.246Z,1.40
2017-12-10T09:59:12.877Z,1.40
2017-12-10T10:01:43.125Z,1.30
2017-12-10T10:04:12.102Z,1.40
2017-12-10T10:06:39.781Z,1.20
2017-12-10T10:09:10.129Z,0.90
2017-12-10T10:11:37.409Z,0.80
2017-12-10T10:14:04.705Z,0.70
2017-12-10T10:16:32.242Z,0.50
2017-12-10T10:19:00.380Z,0.40
2017-12-10T10:21:27.594Z,0.30
2017-12-10T10:23:54.810Z,0.20
2017-12-10T10:26:22.141Z,0.10
2017-12-10T10:28:50.225Z,0.10
2017-12-10T10:31:17.330Z,0.00
2017-12-10T10:33:50.543Z,-0.10
2017-12-10T10:36:17.765Z,-0.10
2017-12-10T10:38:44.960Z,-0.10
2017-12-10T10:41:12.253Z,-0.10
2017-12-10T10:43:39.382Z,-0.10
2017-12-10T10:46:06.507Z,0.00
2017-12-10T10:48:33.707Z,0.00
2017-12-10T10:51:00.819Z,0.10
2017-12-10T10:53:28.428Z,0.10
2017-12-10T10:55:55.602Z,0.10
2017-12-10T10:58:23.119Z,0.10
2017-12-10T11:00:50.282Z,0.10
2017-12-10T11:03:17.570Z,0.00
2017-12-10T11:05:44.855Z,0.00
2017-12-10T11:08:12.492Z,0.10
2017-12-10T11:10:39.607Z,0.10
2017-12-10T11:15:40.352Z,0.00
2017-12-10T11:18:07.557Z,0.00
2017-12-10T11:20:34.738Z,0.00
2017-12-10T11:23:02.024Z,0.00
2017-12-10T11:25:29.099Z,0.00
2017-12-10T11:27:56.204Z,-0.10
2017-12-10T11:30:23.289Z,-0.80
2017-12-10T11:47:31.266Z,0.20
2017-12-10T11:58:45.427Z,0.50
2017-12-10T12:01:13.194Z,0.50
2017-12-10T12:03:40.194Z,0.50
2017-12-10T12:06:07.193Z,0.50
2017-12-10T12:08:34.222Z,0.60
2017-12-10T12:11:01.986Z,0.60
2017-12-10T12:13:29.750Z,0.60
2017-12-10T12:15:57.510Z,0.60
2017-12-10T12:18:25.278Z,0.70
2017-12-10T12:20:53.043Z,0.80
2017-12-10T12:23:20.812Z,0.80
2017-12-10T12:25:47.811Z,0.70
2017-12-10T12:28:14.822Z,0.80
2017-12-10T12:30:41.818Z,0.80
2017-12-10T12:33:08.808Z,0.80
2017-12-10T12:35:35.797Z,1.00
2017-12-10T12:38:02.798Z,1.10
2017-12-10T12:40:29.791Z,1.10
2017-12-10T12:42:56.794Z,1.20
2017-12-10T12:45:23.799Z,1.30
2017-12-10T12:47:51.566Z,1.40
2017-12-10T12:50:19.329Z,1.50
2017-12-10T12:52:47.107Z,1.60
2017-12-10T12:55:14.875Z,1.60
2017-12-10T12:57:41.878Z,1.60
2017-12-10T13:00:08.885Z,1.70
2017-12-10T13:02:35.875Z,1.80
2017-12-10T13:05:02.918Z,1.80
2017-12-10T13:07:29.945Z,1.90
2017-12-10T13:09:56.946Z,1.90
2017-12-10T13:12:23.973Z,1.90
2017-12-10T13:14:51.737Z,2.00
2017-12-10T13:17:19.523Z,2.00
2017-12-10T13:19:46.550Z,2.00
2017-12-10T13:22:14.511Z,2.10
2017-12-10T13:27:15.727Z,2.10
2017-12-10T13:29:42.750Z,2.10
2017-12-10T13:32:09.770Z,2.20
2017-12-10T13:34:37.557Z,2.20
2017-12-10T13:37:04.567Z,2.20
2017-12-10T13:39:31.614Z,2.30
2017-12-10T13:41:58.645Z,2.30
2017-12-10T13:44:25.658Z,2.40
2017-12-10T13:46:52.729Z,2.40
2017-12-10T13:49:19.730Z,2.40
2017-12-10T13:51:46.742Z,2.50
2017-12-10T13:54:13.745Z,2.60
2017-12-10T13:56:40.751Z,2.60
2017-12-10T13:59:08.547Z,2.80
2017-12-10T14:01:35.557Z,2.80
2017-12-10T14:04:03.358Z,2.90
2017-12-10T14:06:30.386Z,2.90
2017-12-10T14:08:57.422Z,2.90
2017-12-10T14:11:25.202Z,3.10
2017-12-10T14:13:52.207Z,3.00
2017-12-10T14:16:19.231Z,3.10
2017-12-10T14:18:46.252Z,3.20
2017-12-10T14:21:13.282Z,3.30
2017-12-10T14:23:40.317Z,3.30
2017-12-10T14:26:08.108Z,3.10
2017-12-10T14:28:35.115Z,3.10
2017-12-10T14:31:02.102Z,3.20
2017-12-10T14:33:29.097Z,3.40
2017-12-10T14:35:56.176Z,3.40
2017-12-10T14:38:23.110Z,3.50
2017-12-10T14:40:50.875Z,3.70
2017-12-10T14:43:18.633Z,3.90
2017-12-10T14:45:46.410Z,4.10
2017-12-10T14:48:13.426Z,4.10
2017-12-10T14:50:40.421Z,4.10
2017-12-10T14:53:07.418Z,3.90
2017-12-10T14:55:34.430Z,4.10
2017-12-10T14:58:01.427Z,4.10
2017-12-10T15:00:29.194Z,4.30
2017-12-10T15:02:56.194Z,4.30
2017-12-10T15:05:23.195Z,4.40
2017-12-10T15:07:50.186Z,4.50
2017-12-10T15:10:17.186Z,4.70
2017-12-10T15:12:44.173Z,4.70
2017-12-10T15:15:11.176Z,4.60
2017-12-10T15:17:38.166Z,4.80
2017-12-10T15:20:05.174Z,4.70
2017-12-10T15:22:32.178Z,4.60
2017-12-10T15:24:59.173Z,4.60
2017-12-10T15:27:26.170Z,4.50
2017-12-10T15:29:53.178Z,4.50
2017-12-10T15:32:20.182Z,4.50
2017-12-10T15:34:47.937Z,4.60
2017-12-10T15:37:15.702Z,4.50
2017-12-10T15:39:43.454Z,4.40
2017-12-10T15:42:10.461Z,4.40
2017-12-10T15:44:37.470Z,4.40
2017-12-10T15:47:04.461Z,4.20
2017-12-10T15:49:31.457Z,4.20
2017-12-10T15:51:58.461Z,4.10
2017-12-10T15:54:25.456Z,4.10
2017-12-10T15:56:52.474Z,4.10
2017-12-10T15:59:19.470Z,4.10
2017-12-10T16:01:46.469Z,4.10
2017-12-10T16:04:14.230Z,4.00
2017-12-10T16:06:41.992Z,4.00
2017-12-10T16:09:10.187Z,4.10
2017-12-10T16:14:34.723Z,4.20
2017-12-10T16:38:55.156Z,4.30
2017-12-10T16:58:58.958Z,6.00
2017-12-10T17:01:26.917Z,6.00
2017-12-10T17:03:53.921Z,5.90
2017-12-10T17:06:20.928Z,6.20
2017-12-10T17:08:48.705Z,6.30
2017-12-10T17:11:16.461Z,6.00
2017-12-10T17:13:44.260Z,6.00
2017-12-10T17:16:11.242Z,6.00
2017-12-10T17:27:26.120Z,5.90
2017-12-10T17:29:53.203Z,6.00
2017-12-10T17:32:20.193Z,5.80
2017-12-10T17:34:47.202Z,5.70
2017-12-10T17:37:14.195Z,5.80
2017-12-10T17:39:41.969Z,5.70
2017-12-10T17:42:08.959Z,5.70
2017-12-10T17:44:35.954Z,5.90
2017-12-10T17:47:03.722Z,6.30
2017-12-10T17:49:31.489Z,6.30
2017-12-10T17:51:58.499Z,6.30
2017-12-10T17:54:25.499Z,6.40
2017-12-10T17:56:52.494Z,6.30
2017-12-10T17:59:19.490Z,6.40
2017-12-10T18:01:46.502Z,6.50
2017-12-10T18:04:14.270Z,7.10
2017-12-10T18:06:42.040Z,7.20
2017-12-10T18:09:09.803Z,7.10
2017-12-10T18:11:37.562Z,7.10
2017-12-10T18:14:05.336Z,7.20
2017-12-10T18:16:33.083Z,6.90
2017-12-10T18:19:00.846Z,6.70
2017-12-10T18:21:28.607Z,6.90
2017-12-10T18:23:55.610Z,6.90
2017-12-10T18:26:22.622Z,6.90
2017-12-10T18:28:49.634Z,6.60
2017-12-10T18:31:16.634Z,6.40
2017-12-10T18:33:43.626Z,6.30
2017-12-10T18:36:10.631Z,6.20
2017-12-10T18:38:37.647Z,6.70
2017-12-10T18:41:04.682Z,6.70
2017-12-10T18:43:32.453Z,6.80
2017-12-10T18:45:59.453Z,6.80
2017-12-10T18:48:26.470Z,6.80
2017-12-10T18:50:53.466Z,6.60
2017-12-10T18:53:21.226Z,6.50
2017-12-10T18:55:48.225Z,6.60
2017-12-10T19:01:11.998Z,6.30
2017-12-10T19:03:39.130Z,6.30
2017-12-10T19:06:06.568Z,6.40
2017-12-10T19:08:34.940Z,6.80
2017-12-10T19:11:09.810Z,6.80
2017-12-10T19:13:36.864Z,6.60
2017-12-10T19:16:03.866Z,6.30
2017-12-10T19:18:31.629Z,6.00
2017-12-10T19:20:58.643Z,6.00
2017-12-10T19:23:25.638Z,6.00
2017-12-10T19:25:53.401Z,6.10
2017-12-10T19:28:21.157Z,6.20
2017-12-10T19:30:48.918Z,6.20
2017-12-10T19:33:16.674Z,6.40
2017-12-10T19:35:44.457Z,7.00
2017-12-10T19:38:14.037Z,6.90
2017-12-10T19:40:41.037Z,7.40
2017-12-10T19:43:08.031Z,7.70
2017-12-10T19:45:35.043Z,7.80
2017-12-10T19:48:02.111Z,7.80
2017-12-10T19:50:29.099Z,7.70
2017-12-10T19:52:56.090Z,7.70
2017-12-10T19:55:23.088Z,8.10
2017-12-10T19:57:50.127Z,7.90
2017-12-10T20:00:18.005Z,8.00
2017-12-10T20:02:45.063Z,7.90
2017-12-10T20:05:12.042Z,8.00
2017-12-10T20:07:39.038Z,8.10
2017-12-10T20:10:06.223Z,8.00
2017-12-10T20:12:33.223Z,8.20
2017-12-10T20:15:00.216Z,8.10
2017-12-10T20:17:27.259Z,8.20
2017-12-10T20:19:54.307Z,8.10
2017-12-10T20:22:21.302Z,8.10
2017-12-10T20:24:49.064Z,8.00
2017-12-10T20:27:16.861Z,8.00
2017-12-10T20:29:43.877Z,8.00
2017-12-10T20:32:10.889Z,8.00
2017-12-10T20:34:37.911Z,8.10
2017-12-10T20:37:04.970Z,8.20
2017-12-10T20:39:32.288Z,8.30
2017-12-10T20:41:59.985Z,8.20
2017-12-10T20:44:27.883Z,8.20
2017-12-10T20:46:54.920Z,8.40
2017-12-10T20:49:21.922Z,8.30
2017-12-10T20:51:48.933Z,8.30
2017-12-10T20:54:15.941Z,8.30
2017-12-10T20:56:42.938Z,8.20
2017-12-10T20:59:09.933Z,8.20
2017-12-10T21:01:36.941Z,8.30
2017-12-10T21:04:03.947Z,8.20
2017-12-10T21:06:30.945Z,8.30
2017-12-10T21:08:57.976Z,8.50
2017-12-10T21:11:25.012Z,8.30
2017-12-10T21:13:52.053Z,8.30
2017-12-10T21:16:21.543Z,8.10
2017-12-10T21:18:48.563Z,8.10
2017-12-10T21:21:15.589Z,8.10
2017-12-10T21:23:42.594Z,8.10
2017-12-10T21:26:10.367Z,8.30
2017-12-10T21:28:38.157Z,8.30
2017-12-10T21:31:05.151Z,8.40
2017-12-10T21:33:32.151Z,8.40
2017-12-10T21:35:59.146Z,8.30
2017-12-10T21:38:26.470Z,8.40
2017-12-10T21:41:07.065Z,8.40
2017-12-10T21:46:10.906Z,8.50
2017-12-10T21:48:38.702Z,8.40
2017-12-10T21:51:05.701Z,8.40
2017-12-10T21:53:32.750Z,7.00
2017-12-10T21:55:59.762Z,8.60
2017-12-10T21:58:26.858Z,8.50
2017-12-10T22:00:53.881Z,8.60
2017-12-10T22:03:20.867Z,8.40
2017-12-10T22:05:47.862Z,8.40
2017-12-10T22:08:14.867Z,8.40
2017-12-10T22:10:45.380Z,8.40
2017-12-10T22:13:12.415Z,8.50
2017-12-10T22:15:39.411Z,8.50
2017-12-10T22:18:06.402Z,8.40
2017-12-10T22:20:33.642Z,8.40
2017-12-10T22:23:00.649Z,8.40
2017-12-10T22:25:28.473Z,8.40
2017-12-10T22:27:55.495Z,8.50
2017-12-10T22:30:22.497Z,8.40
2017-12-10T22:32:49.514Z,8.40
2017-12-10T22:35:16.524Z,8.50
2017-12-10T22:37:43.523Z,8.60
2017-12-10T22:51:56.153Z,8.40
2017-12-10T22:54:23.234Z,8.50
2017-12-10T22:56:50.310Z,8.40
2017-12-10T22:59:17.375Z,8.40
2017-12-10T23:01:45.090Z,8.30
2017-12-10T23:04:12.139Z,8.20
2017-12-10T23:06:39.146Z,8.20
2017-12-10T23:09:06.224Z,8.20
2017-12-10T23:11:34.119Z,8.20
2017-12-10T23:14:05.038Z,8.20
2017-12-10T23:16:32.047Z,8.20
2017-12-10T23:24:51.419Z,8.10
2017-12-10T23:27:18.457Z,8.20
2017-12-10T23:29:45.481Z,8.20
2017-12-10T23:32:12.579Z,8.20
2017-12-10T23:34:39.659Z,8.20
2017-12-10T23:37:06.778Z,8.20
